Time;durP1;ratioP1;P1;durP2;ratioP2;P2;SDS_P1;SDS_P2;PMS_P1;PMS_P2;Temp;Humidity;BMP_temperature;BMP_pressure;BME280_temperature;BME280_humidity;BME280_pressure;Samples;Min_cycle;Max_cycle;Signal;HPM_P1;HPM_P2
2021/08/21 00:00:06;;;;;;;1999.90;999.90;;;;;;;14.92;48.76;101380.34;5066235;27;96912;-77
2021/08/21 00:02:39;;;;;;;1999.90;999.90;;;;;;;14.90;48.85;101370.50;5067458;27;96789;-77
2021/08/21 00:05:08;;;;;;;1999.90;999.90;;;;;;;14.85;49.36;101380.25;5066988;27;97695;-77
2021/08/21 00:07:35;;;;;;;1999.90;999.90;;;;;;;14.81;49.35;101373.06;5066422;27;98095;-76
2021/08/21 00:10:06;;;;;;;1999.90;999.90;;;;;;;14.79;49.28;101372.16;5067055;27;97266;-77
2021/08/21 00:12:34;;;;;;;1999.90;999.90;;;;;;;15.12;50.48;101377.91;5066890;27;97235;-77
2021/08/21 00:15:03;;;;;;;1999.90;999.90;;;;;;;14.92;50.57;101376.75;5069637;27;98608;-76
2021/08/21 00:17:31;;;;;;;1999.90;999.90;;;;;;;14.84;50.56;101378.47;5048478;27;98854;-76
2021/08/21 00:20:00;;;;;;;1999.90;999.90;;;;;;;14.80;50.53;101377.53;5067196;27;96817;-76
2021/08/21 00:22:28;;;;;;;1999.90;999.90;;;;;;;14.74;50.18;101374.75;5065282;27;97188;-76
2021/08/21 00:24:56;;;;;;;1999.90;999.90;;;;;;;14.71;50.54;101379.19;5048942;27;98943;-76
2021/08/21 00:27:25;;;;;;;1999.90;999.90;;;;;;;14.64;50.56;101370.16;5065027;27;99090;-76
2021/08/21 00:29:53;;;;;;;1999.90;999.90;;;;;;;14.58;50.50;101372.75;5066870;27;96985;-77
2021/08/21 00:32:21;;;;;;;1999.90;999.90;;;;;;;14.55;50.62;101371.78;5063844;27;96947;-77
2021/08/21 00:34:49;;;;;;;1999.90;999.90;;;;;;;14.51;50.74;101372.59;5063258;27;98031;-76
2021/08/21 00:37:18;;;;;;;1999.90;999.90;;;;;;;14.84;51.16;101375.78;5045341;27;99604;-76
2021/08/21 00:39:45;;;;;;;1999.90;999.90;;;;;;;14.65;51.47;101371.03;5066366;27;96894;-76
2021/08/21 00:42:14;;;;;;;1999.90;999.90;;;;;;;14.60;51.43;101375.44;5055336;27;96944;-76
2021/08/21 00:44:42;;;;;;;1999.90;999.90;;;;;;;14.56;51.49;101366.47;5064613;27;99554;-77
2021/08/21 00:47:13;;;;;;;1999.90;999.90;;;;;;;14.52;51.19;101367.25;5064328;27;100470;-77
2021/08/21 00:49:42;;;;;;;1999.90;999.90;;;;;;;14.49;51.25;101366.31;5068591;27;96910;-76
2021/08/21 00:52:13;;;;;;;1999.90;999.90;;;;;;;14.43;51.39;101367.13;5061854;27;98249;-76
2021/08/21 00:54:42;;;;;;;1999.90;999.90;;;;;;;14.42;51.21;101359.09;5065885;27;100182;-76
2021/08/21 00:57:11;;;;;;;1999.90;999.90;;;;;;;14.41;51.57;101359.97;5064258;27;98890;-76
2021/08/21 00:59:41;;;;;;;1999.90;999.90;;;;;;;14.40;51.35;101355.47;5052721;27;96845;-77
2021/08/21 01:02:10;;;;;;;1999.90;999.90;;;;;;;14.75;51.49;101354.22;5047087;27;97953;-76
2021/08/21 01:04:40;;;;;;;1999.90;999.90;;;;;;;14.55;51.84;101353.03;5047208;27;97974;-77
2021/08/21 01:07:09;;;;;;;1999.90;999.90;;;;;;;14.48;51.67;101353.81;5066285;27;100460;-77
2021/08/21 01:09:39;;;;;;;1999.90;999.90;;;;;;;14.46;51.83;101358.25;5066404;27;97317;-76
2021/08/21 01:12:09;;;;;;;1999.90;999.90;;;;;;;14.41;52.05;101350.13;5049779;27;96795;-77
2021/08/21 01:14:37;;;;;;;1999.90;999.90;;;;;;;14.41;51.77;101355.50;5047118;27;99949;-76
2021/08/21 01:17:05;;;;;;;1999.90;999.90;;;;;;;14.36;51.82;101353.63;5067042;27;98118;-77
2021/08/21 01:19:37;;;;;;;1999.90;999.90;;;;;;;14.31;52.02;101355.34;5046408;27;97832;-76
2021/08/21 01:22:05;;;;;;;1999.90;999.90;;;;;;;14.26;51.90;101355.28;5050102;27;97100;-77
2021/08/21 01:24:34;;;;;;;1999.90;999.90;;;;;;;14.25;51.98;101360.59;5047005;27;101413;-76
2021/08/21 01:27:04;;;;;;;1999.90;999.90;;;;;;;14.23;51.91;101349.88;5045737;27;97270;-76
2021/08/21 01:29:49;;;;;;;1999.90;999.90;;;;;;;14.21;51.98;101358.78;5066549;27;97316;-76
2021/08/21 01:32:44;;;;;;;1999.90;999.90;;;;;;;14.17;52.03;101360.47;5062989;27;96754;-76
2021/08/21 01:35:14;;;;;;;1999.90;999.90;;;;;;;14.17;51.93;101351.56;5047851;27;100598;-76
2021/08/21 01:37:42;;;;;;;1999.90;999.90;;;;;;;14.17;52.00;101357.78;5046513;27;100380;-76
2021/08/21 01:40:29;;;;;;;1999.90;999.90;;;;;;;14.17;51.95;101359.59;5065274;27;97362;-76
2021/08/21 01:43:00;;;;;;;1999.90;999.90;;;;;;;14.17;51.81;101359.59;5047120;27;97724;-78
2021/08/21 01:45:30;;;;;;;1999.90;999.90;;;;;;;14.15;51.63;101357.78;5064256;27;99633;-77
2021/08/21 01:47:58;;;;;;;1999.90;999.90;;;;;;;14.14;51.96;101350.63;5047199;27;97812;-77
2021/08/21 01:50:26;;;;;;;1999.90;999.90;;;;;;;14.17;51.83;101359.59;5042998;27;96977;-77
2021/08/21 01:52:54;;;;;;;1999.90;999.90;;;;;;;14.14;51.89;101361.34;5046325;27;96836;-77
2021/08/21 01:55:35;;;;;;;1999.90;999.90;;;;;;;14.15;51.68;101359.59;5065168;27;97734;-77
2021/08/21 01:58:18;;;;;;;1999.90;999.90;;;;;;;14.10;51.95;101363.94;5048069;27;99122;-77
2021/08/21 02:01:14;;;;;;;1999.90;999.90;;;;;;;14.08;51.91;101365.69;5063094;27;96901;-77
2021/08/21 02:04:03;;;;;;;1999.90;999.90;;;;;;;14.06;51.90;101372.81;5063949;27;97723;-77
2021/08/21 02:06:30;;;;;;;1999.90;999.90;;;;;;;14.06;51.90;101368.34;5046637;27;99779;-77
2021/08/21 02:08:59;;;;;;;1999.90;999.90;;;;;;;14.04;51.91;101370.09;5062387;27;97615;-77
2021/08/21 02:11:27;;;;;;;1999.90;999.90;;;;;;;14.05;52.01;101368.31;5063450;27;97029;-77
2021/08/21 02:13:56;;;;;;;1999.90;999.90;;;;;;;14.06;51.76;101367.47;5047465;27;97108;-77
2021/08/21 02:16:24;;;;;;;1999.90;999.90;;;;;;;14.05;51.92;101379.03;5050052;27;100954;-77
2021/08/21 02:18:52;;;;;;;1999.90;999.90;;;;;;;14.06;51.89;101378.16;5052184;27;99571;-77
2021/08/21 02:21:39;;;;;;;1999.90;999.90;;;;;;;14.05;51.87;101371.91;5051429;27;98310;-77
2021/08/21 02:24:09;;;;;;;1999.90;999.90;;;;;;;14.42;52.11;101373.38;5049653;27;98034;-77
2021/08/21 02:26:41;;;;;;;1999.90;999.90;;;;;;;14.20;52.55;101371.25;5066928;27;99329;-76
2021/08/21 02:29:13;;;;;;;1999.90;999.90;;;;;;;14.14;52.51;101366.69;5068367;27;98432;-77
2021/08/21 02:31:41;;;;;;;1999.90;999.90;;;;;;;14.13;52.43;101374.72;5050537;27;99393;-77
2021/08/21 02:34:09;;;;;;;1999.90;999.90;;;;;;;14.12;52.51;101372.88;5068480;27;98195;-77
2021/08/21 02:36:37;;;;;;;1999.90;999.90;;;;;;;14.10;52.42;101366.59;5069080;27;97526;-77
2021/08/21 02:39:05;;;;;;;1999.90;999.90;;;;;;;14.09;52.33;101373.75;5068498;27;97743;-77
2021/08/21 02:41:33;;;;;;;1999.90;999.90;;;;;;;14.07;52.37;101372.84;5068958;27;96778;-78
2021/08/21 02:44:01;;;;;;;1999.90;999.90;;;;;;;14.07;52.40;101372.84;5070329;27;97322;-77
2021/08/21 02:46:31;;;;;;;1999.90;999.90;;;;;;;14.08;52.37;101376.38;5052410;27;100052;-77
2021/08/21 02:48:58;;;;;;;1999.90;999.90;;;;;;;14.10;52.45;101367.53;5069863;27;97647;-77
2021/08/21 02:51:26;;;;;;;1999.90;999.90;;;;;;;14.10;52.12;101366.59;5069295;27;97424;-77
2021/08/21 02:53:54;;;;;;;1999.90;999.90;;;;;;;14.08;52.14;101368.34;5067380;27;97363;-76
2021/08/21 02:56:22;;;;;;;1999.90;999.90;;;;;;;14.07;52.41;101367.47;5046617;27;100509;-77
2021/08/21 02:58:52;;;;;;;1999.90;999.90;;;;;;;14.08;52.11;101371.94;5065675;27;98184;-77
2021/08/21 03:01:23;;;;;;;1999.90;999.90;;;;;;;14.08;52.43;101365.69;5050815;27;97063;-77
2021/08/21 03:03:53;;;;;;;1999.90;999.90;;;;;;;14.08;52.28;101371.94;5051257;27;97398;-77
2021/08/21 03:06:21;;;;;;;1999.90;999.90;;;;;;;14.06;52.34;101368.34;5049677;27;99450;-76
2021/08/21 03:08:49;;;;;;;1999.90;999.90;;;;;;;14.04;52.35;101370.09;5064940;27;97923;-77
2021/08/21 03:11:17;;;;;;;1999.90;999.90;;;;;;;14.05;52.36;101369.22;5070773;27;96939;-77
2021/08/21 03:14:07;;;;;;;1999.90;999.90;;;;;;;14.04;52.27;101364.75;5068269;27;97849;-76
2021/08/21 03:16:35;;;;;;;1999.90;999.90;;;;;;;14.02;52.41;101370.97;5067300;27;100336;-77
2021/08/21 03:19:05;;;;;;;1999.90;999.90;;;;;;;14.00;52.54;101373.63;5048256;27;99264;-76
2021/08/21 03:21:33;;;;;;;1999.90;999.90;;;;;;;13.99;52.78;101370.88;5046753;27;97348;-77
2021/08/21 03:24:01;;;;;;;1999.90;999.90;;;;;;;13.98;52.58;101372.69;5048399;27;97290;-77
2021/08/21 03:26:29;;;;;;;1999.90;999.90;;;;;;;14.36;52.81;101377.72;5048149;27;99808;-76
2021/08/21 03:28:57;;;;;;;1999.90;999.90;;;;;;;14.14;52.94;101377.41;5049858;27;98956;-77
2021/08/21 03:31:25;;;;;;;1999.90;999.90;;;;;;;14.08;53.30;101377.28;5069768;27;97000;-77
2021/08/21 03:33:53;;;;;;;1999.90;999.90;;;;;;;14.03;53.12;101378.09;5049235;27;96704;-76
2021/08/21 03:36:22;;;;;;;1999.90;999.90;;;;;;;14.04;53.18;101382.59;5065840;27;97922;-77
2021/08/21 03:38:50;;;;;;;1999.90;999.90;;;;;;;14.02;53.18;101387.91;5049733;27;99571;-77
2021/08/21 03:41:20;;;;;;;1999.90;999.90;;;;;;;14.00;52.94;101387.00;5050500;27;97834;-77
2021/08/21 03:44:00;;;;;;;1999.90;999.90;;;;;;;13.96;53.18;101386.91;5051114;27;97649;-76
2021/08/21 03:46:29;;;;;;;1999.90;999.90;;;;;;;14.32;53.38;101389.25;5048687;27;99904;-76
2021/08/21 03:48:57;;;;;;;1999.90;999.90;;;;;;;14.11;53.45;101387.16;5065128;27;97615;-77
2021/08/21 03:51:28;;;;;;;1999.90;999.90;;;;;;;14.04;53.38;101378.13;5049944;27;97616;-76
2021/08/21 03:53:56;;;;;;;1999.90;999.90;;;;;;;13.99;53.41;101387.84;5063522;27;98318;-76
2021/08/21 03:56:25;;;;;;;1999.90;999.90;;;;;;;13.97;53.52;101394.94;5067014;27;97913;-77
2021/08/21 03:58:57;;;;;;;1999.90;999.90;;;;;;;14.34;53.09;101398.22;5046674;27;98330;-76
2021/08/21 04:01:25;;;;;;;1999.90;999.90;;;;;;;14.12;53.68;101402.34;5064879;27;99936;-77
2021/08/21 04:04:00;;;;;;;1999.90;999.90;;;;;;;14.46;53.22;101399.34;5048776;27;97996;-75
2021/08/21 04:06:34;;;;;;;1999.90;999.90;;;;;;;14.23;53.67;101397.16;5068437;27;97116;-76
2021/08/21 04:09:02;;;;;;;1999.90;999.90;;;;;;;14.14;53.95;101398.81;5049030;27;100997;-76
2021/08/21 04:11:35;;;;;;;1999.90;999.90;;;;;;;14.09;53.66;101399.63;5048537;27;97686;-76
2021/08/21 04:14:08;;;;;;;1999.90;999.90;;;;;;;14.44;53.83;101397.50;5048108;27;97179;-76
2021/08/21 04:16:37;;;;;;;1999.90;999.90;;;;;;;14.20;53.91;101397.09;5046490;27;98311;-77
2021/08/21 04:19:05;;;;;;;1999.90;999.90;;;;;;;14.49;53.58;101399.38;5064034;27;97634;-76
2021/08/21 04:21:40;;;;;;;1999.90;999.90;;;;;;;14.23;54.12;101405.19;5066220;27;97690;-75
2021/08/21 04:24:15;;;;;;;1999.90;999.90;;;;;;;14.12;54.25;101403.25;5047648;27;97542;-76
2021/08/21 04:26:44;;;;;;;1999.90;999.90;;;;;;;14.07;54.03;101407.63;5063351;27;98898;-77
2021/08/21 04:29:13;;;;;;;1999.90;999.90;;;;;;;14.02;54.29;101395.91;5048792;27;99196;-77
2021/08/21 04:31:42;;;;;;;1999.90;999.90;;;;;;;13.97;54.12;101402.06;5065025;27;97037;-77
2021/08/21 04:34:10;;;;;;;1999.90;999.90;;;;;;;14.06;53.71;101403.13;5040753;27;96873;-77
2021/08/21 04:36:39;;;;;;;1999.90;999.90;;;;;;;14.04;53.71;101398.66;5047851;27;99337;-76
2021/08/21 04:39:10;;;;;;;1999.90;999.90;;;;;;;14.01;53.80;101401.25;5043589;27;99690;-77
2021/08/21 04:41:38;;;;;;;1999.90;999.90;;;;;;;13.99;53.74;101403.00;5048476;27;96884;-76
2021/08/21 04:44:05;;;;;;;1999.90;999.90;;;;;;;13.96;53.80;101409.22;5063567;27;97226;-77
2021/08/21 04:46:35;;;;;;;1999.90;999.90;;;;;;;13.96;53.62;101413.66;5066467;27;99200;-77
2021/08/21 04:49:03;;;;;;;1999.90;999.90;;;;;;;13.93;53.60;101417.16;5061639;27;97687;-76
2021/08/21 04:51:32;;;;;;;1999.90;999.90;;;;;;;13.90;53.75;101414.47;5043119;27;97474;-77
2021/08/21 04:54:06;;;;;;;1999.90;999.90;;;;;;;13.87;53.72;101414.41;5048507;27;97427;-75
2021/08/21 04:56:34;;;;;;;1999.90;999.90;;;;;;;13.85;53.75;101415.25;5066854;27;98016;-75
2021/08/21 04:59:20;;;;;;;1999.90;999.90;;;;;;;13.82;53.71;101416.09;5066848;27;98744;-76
2021/08/21 05:01:51;;;;;;;1999.90;999.90;;;;;;;13.81;53.59;101419.66;5046986;27;97557;-76
2021/08/21 05:04:20;;;;;;;1999.90;999.90;;;;;;;13.79;53.56;101429.41;5066008;27;98060;-76
2021/08/21 05:06:50;;;;;;;1999.90;999.90;;;;;;;13.77;53.56;101425.78;5041617;27;99549;-77
2021/08/21 05:09:19;;;;;;;1999.90;999.90;;;;;;;13.75;53.61;101423.97;5048782;27;99633;-76
2021/08/21 05:11:51;;;;;;;1999.90;999.90;;;;;;;13.74;53.61;101422.13;5064740;27;96752;-75
2021/08/21 05:14:19;;;;;;;1999.90;999.90;;;;;;;13.74;53.63;101428.41;5047376;27;98962;-76
2021/08/21 05:16:48;;;;;;;1999.90;999.90;;;;;;;13.73;53.73;101423.91;5047343;27;98618;-76
2021/08/21 05:19:39;;;;;;;1999.90;999.90;;;;;;;13.74;53.65;101425.72;5064503;27;100653;-77
2021/08/21 05:22:24;;;;;;;1999.90;999.90;;;;;;;13.74;53.64;101431.06;5066477;27;97019;-77
2021/08/21 05:24:54;;;;;;;1999.90;999.90;;;;;;;13.74;53.58;101425.72;5043605;27;97018;-77
2021/08/21 05:27:23;;;;;;;1999.90;999.90;;;;;;;13.75;53.60;101432.00;5065330;27;97691;-76
2021/08/21 05:29:52;;;;;;;1999.90;999.90;;;;;;;13.75;53.51;101432.88;5046994;27;101821;-76
2021/08/21 05:32:20;;;;;;;1999.90;999.90;;;;;;;13.76;53.52;101432.00;5064192;27;98071;-76
2021/08/21 05:34:48;;;;;;;1999.90;999.90;;;;;;;13.78;53.54;101443.66;5064682;27;96900;-77
2021/08/21 05:37:16;;;;;;;1999.90;999.90;;;;;;;13.80;53.52;101443.69;5064013;27;97650;-76
2021/08/21 05:39:43;;;;;;;1999.90;999.90;;;;;;;13.79;53.51;101437.44;5065215;27;98891;-76
2021/08/21 05:42:12;;;;;;;1999.90;999.90;;;;;;;13.81;53.43;101442.81;5034944;27;96044;-76
2021/08/21 05:44:40;;;;;;;1999.90;999.90;;;;;;;13.81;53.44;101451.75;5064159;27;97739;-77
2021/08/21 05:47:08;;;;;;;1999.90;999.90;;;;;;;13.85;53.34;101447.34;5063289;27;97790;-76
2021/08/21 05:49:36;;;;;;;1999.90;999.90;;;;;;;13.83;53.46;101447.31;5065815;27;97681;-77
2021/08/21 05:52:04;;;;;;;1999.90;999.90;;;;;;;13.84;53.47;101449.13;5067655;27;96975;-76
2021/08/21 05:54:32;;;;;;;1999.90;999.90;;;;;;;13.84;53.49;101449.13;5068506;27;97091;-75
2021/08/21 05:57:06;;;;;;;1999.90;999.90;;;;;;;13.89;53.27;101455.47;5061661;27;99087;-76
2021/08/21 05:59:35;;;;;;;1999.90;999.90;;;;;;;13.91;53.42;101456.41;5067492;27;99449;-76
2021/08/21 06:02:03;;;;;;;1999.90;999.90;;;;;;;13.92;53.36;101451.94;5068544;27;97326;-77
2021/08/21 06:04:31;;;;;;;1999.90;999.90;;;;;;;13.92;53.49;101451.94;5069781;27;97609;-77
2021/08/21 06:06:59;;;;;;;1999.90;999.90;;;;;;;13.93;53.54;101451.97;5051498;27;99550;-77
2021/08/21 06:09:27;;;;;;;1999.90;999.90;;;;;;;13.94;53.30;101453.78;5052410;27;99648;-77
2021/08/21 06:11:58;;;;;;;1999.90;999.90;;;;;;;13.96;53.32;101464.50;5040100;27;97032;-76
2021/08/21 06:14:26;;;;;;;1999.90;999.90;;;;;;;13.96;53.53;101462.75;5069675;27;97541;-77
2021/08/21 06:16:55;;;;;;;1999.90;999.90;;;;;;;13.92;53.53;101470.66;5066442;27;100856;-76
2021/08/21 06:19:23;;;;;;;1999.90;999.90;;;;;;;13.91;53.62;101467.13;5067850;27;99294;-76
2021/08/21 06:21:50;;;;;;;1999.90;999.90;;;;;;;13.92;53.58;101468.00;5069391;27;96798;-77
2021/08/21 06:24:18;;;;;;;1999.90;999.90;;;;;;;13.93;53.52;101470.69;5066824;27;96827;-76
2021/08/21 06:26:46;;;;;;;1999.90;999.90;;;;;;;13.96;53.53;101472.53;5067606;27;99374;-76
2021/08/21 06:29:14;;;;;;;1999.90;999.90;;;;;;;14.00;53.28;101471.72;5048978;27;97282;-75
2021/08/21 06:31:42;;;;;;;1999.90;999.90;;;;;;;14.02;53.40;101472.66;5048166;27;96798;-77
2021/08/21 06:34:11;;;;;;;1999.90;999.90;;;;;;;14.06;53.26;101474.50;5067468;27;96852;-77
2021/08/21 06:36:39;;;;;;;1999.90;999.90;;;;;;;14.08;53.38;101473.66;5065201;27;99127;-76
2021/08/21 06:39:07;;;;;;;1999.90;999.90;;;;;;;14.14;53.04;101473.75;5064599;27;100347;-77
2021/08/21 06:41:34;;;;;;;1999.90;999.90;;;;;;;14.19;53.09;101473.84;5067694;27;97585;-75
2021/08/21 06:44:03;;;;;;;1999.90;999.90;;;;;;;14.23;53.03;101469.44;5066230;27;97234;-77
2021/08/21 06:46:41;;;;;;;1999.90;999.90;;;;;;;14.25;52.78;101476.63;5062438;27;98084;-77
2021/08/21 06:49:10;;;;;;;1999.90;999.90;;;;;;;14.29;52.85;101467.78;5063410;27;98876;-76
2021/08/21 06:51:38;;;;;;;1999.90;999.90;;;;;;;14.30;52.82;101461.53;5067239;27;97613;-77
2021/08/21 06:54:06;;;;;;;1999.90;999.90;;;;;;;14.31;52.78;101468.69;5064030;27;97231;-77
2021/08/21 06:56:34;;;;;;;1999.90;999.90;;;;;;;14.35;52.92;101459.84;5067362;27;100479;-77
2021/08/21 06:59:02;;;;;;;1999.90;999.90;;;;;;;14.40;52.75;101470.63;5049751;27;99296;-76
2021/08/21 07:01:30;;;;;;;1999.90;999.90;;;;;;;14.43;52.46;101465.31;5065985;27;96929;-77
2021/08/21 07:03:58;;;;;;;1999.90;999.90;;;;;;;14.48;52.58;101468.97;5067749;27;97149;-78
2021/08/21 07:06:27;;;;;;;1999.90;999.90;;;;;;;14.51;52.36;101469.03;5047428;27;101156;-78
2021/08/21 07:08:54;;;;;;;1999.90;999.90;;;;;;;14.54;52.35;101469.06;5067073;27;97743;-77
2021/08/21 07:11:22;;;;;;;1999.90;999.90;;;;;;;14.58;52.29;101474.53;5067014;27;97443;-77
2021/08/21 07:13:50;;;;;;;1999.90;999.90;;;;;;;14.63;52.29;101479.94;5068327;27;97913;-77
2021/08/21 07:16:18;;;;;;;1999.90;999.90;;;;;;;14.62;52.49;101468.34;5068088;27;98945;-78
2021/08/21 07:18:46;;;;;;;1999.90;999.90;;;;;;;14.60;52.35;101474.56;5067821;27;97579;-78
2021/08/21 07:21:13;;;;;;;1999.90;999.90;;;;;;;14.59;52.50;101470.09;5065036;27;97318;-77
2021/08/21 07:23:43;;;;;;;1999.90;999.90;;;;;;;14.61;52.55;101471.03;5050209;27;97198;-76
2021/08/21 07:26:10;;;;;;;1999.90;999.90;;;;;;;14.66;52.37;101470.19;5057177;27;100508;-77
2021/08/21 07:28:38;;;;;;;1999.90;999.90;;;;;;;14.70;52.48;101471.16;5063815;27;98199;-76
2021/08/21 07:31:06;;;;;;;1999.90;999.90;;;;;;;14.73;52.16;101472.09;5060044;27;97105;-77
2021/08/21 07:33:33;;;;;;;1999.90;999.90;;;;;;;14.77;52.10;101468.56;5049092;27;97539;-76
2021/08/21 07:36:01;;;;;;;1999.90;999.90;;;;;;;14.80;52.05;101468.63;5067026;27;99607;-76
2021/08/21 07:38:29;;;;;;;1999.90;999.90;;;;;;;14.82;51.96;101472.25;5065591;27;99442;-78
2021/08/21 07:40:58;;;;;;;1999.90;999.90;;;;;;;14.84;51.79;101474.94;5068233;27;97141;-77
2021/08/21 07:43:27;;;;;;;1999.90;999.90;;;;;;;14.89;52.02;101470.53;5046237;27;97629;-76
2021/08/21 07:45:54;;;;;;;1999.90;999.90;;;;;;;14.93;52.11;101475.97;5067901;27;97950;-76
2021/08/21 07:48:22;;;;;;;1999.90;999.90;;;;;;;14.98;51.92;101478.69;5066919;27;97642;-77
2021/08/21 07:50:50;;;;;;;1999.90;999.90;;;;;;;15.03;51.85;101479.66;5067295;27;97750;-75
2021/08/21 07:53:18;;;;;;;1999.90;999.90;;;;;;;15.06;51.78;101475.25;5068607;27;97363;-76
2021/08/21 07:55:45;;;;;;;1999.90;999.90;;;;;;;15.12;51.61;101482.47;5060819;27;101452;-77
2021/08/21 07:58:15;;;;;;;1999.90;999.90;;;;;;;15.19;51.72;101487.06;5065523;27;98803;-76
2021/08/21 08:00:42;;;;;;;1999.90;999.90;;;;;;;15.25;51.55;101488.91;5048011;27;97204;-76
2021/08/21 08:03:14;;;;;;;1999.90;999.90;;;;;;;15.28;51.59;101479.13;5066919;27;97231;-76
2021/08/21 08:05:42;;;;;;;1999.90;999.90;;;;;;;15.33;51.50;101477.44;5064043;27;99272;-76
2021/08/21 08:08:10;;;;;;;1999.90;999.90;;;;;;;15.38;50.99;101481.06;5066107;27;97529;-76
2021/08/21 08:10:38;;;;;;;1999.90;999.90;;;;;;;15.42;50.84;101480.22;5066013;27;97529;-76
2021/08/21 08:13:06;;;;;;;1999.90;999.90;;;;;;;15.45;51.00;101482.94;5064737;27;97902;-76
2021/08/21 08:15:35;;;;;;;1999.90;999.90;;;;;;;15.49;50.91;101479.41;5065794;27;97791;-76
2021/08/21 08:18:03;;;;;;;1999.90;999.90;;;;;;;15.52;50.81;101479.44;5065176;27;96829;-77
2021/08/21 08:20:31;;;;;;;1999.90;999.90;;;;;;;15.57;50.60;101477.75;5065748;27;96912;-76
2021/08/21 08:22:59;;;;;;;1999.90;999.90;;;;;;;15.62;50.56;101480.47;5043681;27;97462;-76
2021/08/21 08:25:28;;;;;;;1999.90;999.90;;;;;;;15.67;50.47;101485.00;5064065;27;97740;-76
2021/08/21 08:27:56;;;;;;;1999.90;999.90;;;;;;;15.72;50.65;101483.25;5047075;27;99223;-74
2021/08/21 08:30:24;;;;;;;1999.90;999.90;;;;;;;15.78;50.35;101483.34;5056484;27;97289;-76
2021/08/21 08:32:53;;;;;;;1999.90;999.90;;;;;;;15.81;50.31;101482.47;5065493;27;97908;-77
2021/08/21 08:35:21;;;;;;;1999.90;999.90;;;;;;;15.85;50.21;101486.97;5045544;27;99734;-75
2021/08/21 08:37:49;;;;;;;1999.90;999.90;;;;;;;15.90;50.35;101487.94;5066838;27;96938;-77
2021/08/21 08:40:19;;;;;;;1999.90;999.90;;;;;;;15.94;50.12;101482.59;5067052;27;96947;-76
2021/08/21 08:42:46;;;;;;;1999.90;999.90;;;;;;;16.01;50.27;101495.25;5064988;27;97218;-76
2021/08/21 08:45:14;;;;;;;1999.90;999.90;;;;;;;16.03;50.34;101489.91;5065620;27;99814;-76
2021/08/21 08:47:42;;;;;;;1999.90;999.90;;;;;;;16.05;49.91;101486.34;5064350;27;98074;-75
2021/08/21 08:50:13;;;;;;;1999.90;999.90;;;;;;;16.04;50.26;101487.25;5045183;27;97325;-75
2021/08/21 08:52:41;;;;;;;1999.90;999.90;;;;;;;16.06;50.23;101488.16;5065227;27;97587;-75
2021/08/21 08:55:10;;;;;;;1999.90;999.90;;;;;;;16.08;50.03;101486.38;5064788;27;97677;-74
2021/08/21 08:57:39;;;;;;;1999.90;999.90;;;;;;;16.13;50.26;101491.78;5062372;27;99327;-76
2021/08/21 09:00:09;;;;;;;1999.90;999.90;;;;;;;16.17;49.91;101490.94;5063767;27;96743;-74
2021/08/21 09:02:39;;;;;;;1999.90;999.90;;;;;;;16.25;49.94;101485.63;5063995;27;97218;-74
2021/08/21 09:05:09;;;;;;;1999.90;999.90;;;;;;;16.31;49.90;101491.03;5065988;27;96930;-73
2021/08/21 09:07:46;;;;;;;1999.90;999.90;;;;;;;16.33;50.37;101489.28;5062545;27;97723;-73
2021/08/21 09:10:16;;;;;;;1999.90;999.90;;;;;;;16.33;50.16;101491.97;5063472;27;97669;-72
2021/08/21 09:12:44;;;;;;;1999.90;999.90;;;;;;;16.31;50.14;101481.22;5064150;27;99427;-73
2021/08/21 09:15:21;;;;;;;1999.90;999.90;;;;;;;16.36;49.89;101482.13;5058339;27;98654;-73
2021/08/21 09:18:05;;;;;;;1999.90;999.90;;;;;;;16.38;49.41;101485.75;5061993;27;97755;-73
2021/08/21 09:20:35;;;;;;;1999.90;999.90;;;;;;;16.44;49.25;101487.59;5065429;27;97349;-74
2021/08/21 09:23:25;;;;;;;1999.90;999.90;;;;;;;16.42;49.52;101490.25;5064713;27;97107;-73
2021/08/21 09:25:54;;;;;;;1999.90;999.90;;;;;;;16.45;49.59;101484.91;5063121;27;101516;-74
2021/08/21 09:28:24;;;;;;;1999.90;999.90;;;;;;;16.48;49.54;101490.31;5065254;27;97669;-76
2021/08/21 09:31:06;;;;;;;1999.90;999.90;;;;;;;16.48;49.25;101487.63;5059853;27;97218;-76
2021/08/21 09:33:35;;;;;;;1999.90;999.90;;;;;;;16.51;49.38;101489.44;5065051;27;97045;-77
2021/08/21 09:36:05;;;;;;;1999.90;999.90;;;;;;;16.54;49.58;101484.09;5065746;27;98740;-77
2021/08/21 09:38:35;;;;;;;1999.90;999.90;;;;;;;16.58;49.39;101486.81;5062849;27;98820;-77
2021/08/21 09:41:05;;;;;;;1999.90;999.90;;;;;;;16.59;49.37;101482.34;5066010;27;97340;-77
2021/08/21 09:43:35;;;;;;;1999.90;999.90;;;;;;;16.61;49.42;101485.94;5064019;27;97651;-77
2021/08/21 09:46:12;;;;;;;1999.90;999.90;;;;;;;16.63;49.35;101486.84;5049115;27;99221;-79
2021/08/21 09:49:00;;;;;;;1999.90;999.90;;;;;;;16.63;49.23;101490.44;5053768;27;99237;-78
2021/08/21 09:51:33;;;;;;;1999.90;999.90;;;;;;;16.66;49.37;101478.81;5050605;27;97301;-77
2021/08/21 09:54:04;;;;;;;1999.90;999.90;;;;;;;16.70;49.18;101483.31;5062908;27;97299;-77
2021/08/21 09:56:33;;;;;;;1999.90;999.90;;;;;;;16.77;49.05;101479.81;5044084;27;98234;-77
2021/08/21 09:59:02;;;;;;;1999.90;999.90;;;;;;;16.82;49.05;101478.97;5065530;27;98919;-77
2021/08/21 10:01:30;;;;;;;1999.90;999.90;;;;;;;16.94;48.62;101479.03;5047218;27;98677;-78
2021/08/21 10:03:59;;;;;;;1999.90;999.90;;;;;;;17.01;48.65;101479.97;5050125;27;97879;-77
2021/08/21 10:06:28;;;;;;;1999.90;999.90;;;;;;;17.03;48.63;101475.50;5065616;27;97754;-78
2021/08/21 10:09:00;;;;;;;1999.90;999.90;;;;;;;17.08;48.43;101473.75;5067580;27;99160;-78
2021/08/21 10:11:29;;;;;;;1999.90;999.90;;;;;;;17.14;48.31;101472.88;5064437;27;96943;-79
2021/08/21 10:13:58;;;;;;;1999.90;999.90;;;;;;;17.12;48.47;101470.19;5055935;27;97187;-77
2021/08/21 10:16:26;;;;;;;1999.90;999.90;;;;;;;17.13;48.29;101471.97;5049310;27;98073;-79
2021/08/21 10:18:55;;;;;;;1999.90;999.90;;;;;;;17.15;48.26;101471.97;5064752;27;100851;-80
2021/08/21 10:21:23;;;;;;;1999.90;999.90;;;;;;;17.20;47.96;101467.53;5065963;27;97733;-78
2021/08/21 10:23:52;;;;;;;1999.90;999.90;;;;;;;17.21;47.99;101467.53;5066540;27;97283;-78
2021/08/21 10:26:25;;;;;;;1999.90;999.90;;;;;;;17.21;48.15;101470.22;5065452;27;98044;-77
2021/08/21 10:28:55;;;;;;;1999.90;999.90;;;;;;;17.19;48.19;101468.41;5063084;27;99683;-77
2021/08/21 10:31:40;;;;;;;1999.90;999.90;;;;;;;17.18;48.13;101470.22;5066570;27;96981;-78
2021/08/21 10:34:10;;;;;;;1999.90;999.90;;;;;;;17.19;48.25;101463.94;5060072;27;97721;-76
2021/08/21 10:36:47;;;;;;;1999.90;999.90;;;;;;;17.20;48.00;101462.16;5061374;27;96971;-75
2021/08/21 10:39:18;;;;;;;1999.90;999.90;;;;;;;17.25;48.05;101466.66;5066111;27;99632;-76
2021/08/21 10:41:47;;;;;;;1999.90;999.90;;;;;;;17.26;47.91;101465.75;5065239;27;97693;-76
2021/08/21 10:44:44;;;;;;;1999.90;999.90;;;;;;;17.27;47.98;101459.50;5060751;27;96903;-75
2021/08/21 10:47:36;;;;;;;1999.90;999.90;;;;;;;17.28;47.76;101457.69;5060508;27;98101;-75
2021/08/21 10:50:35;;;;;;;1999.90;999.90;;;;;;;17.37;47.39;101464.00;5065939;27;99208;-75
2021/08/21 10:53:09;;;;;;;1999.90;999.90;;;;;;;17.35;47.53;101463.09;5065592;27;96901;-76
2021/08/21 10:55:39;;;;;;;1999.90;999.90;;;;;;;17.37;47.47;101461.31;5045854;27;96932;-75
2021/08/21 10:58:14;;;;;;;1999.90;999.90;;;;;;;17.38;47.74;101452.41;5062072;27;98695;-75
2021/08/21 11:00:55;;;;;;;1999.90;999.90;;;;;;;17.39;47.54;101455.97;5069609;27;98083;-75